Terminal Aerodrome Forecast
Issued by NWS Cleveland, OH

Home | Current Version | Previous Version | Text Only | Print | Product List | Glossary On
Versions: 1 2 3 4 5 6 7 8 9 10 11 12 13 14 15 16 17 18 19 20 21 22 23 24 25 26 27 28 29 30 31 32 33 34 35 36
000
FTUS41 KCLE 242300
TAFCLE
TAF
KCLE 242324Z 2500/2606 04010KT P6SM OVC150
     FM250200 09010KT P6SM OVC100
     FM251300 14012G20KT 6SM -RA OVC035
     FM251500 16015G25KT 3SM -RA OVC025
     FM251800 21015G25KT 3SM -RA OVC015
     FM252100 26015G30KT P6SM OVC025=

USA.gov is the U.S. government's official web portal to all federal, state and local government web resources and services.